HDAM/JIB METAR and TAF weather

Enter ICAO airport designator
Station Type Date Time Source
HDAM METAR 2020/02/24 08:00 UTC NOAA

HDAM 240800Z 09010KT 9999 FEW023 SCT133 30/23 Q1016


Station Type Date Time Source
HDAM Decoded METAR 2020/02/24 08:00 UTC NOAA

Djibouti \ Ambouli, Djibouti (HDAM) 11-33N 043-10E
Feb 24, 2020 - 03:00 AM EST / 2020.02.24 0800 UTC
Wind: from the E (090 degrees) at 12 MPH (10 KT):0
Visibility: greater than 7 mile(s):0
Sky conditions: partly cloudy
Temperature: 86 F (30 C)
Heat index: 93.4 F (34.1 C):1
Dew Point: 73 F (23 C)
Relative Humidity: 66%
Pressure (altimeter): 30.00 in. Hg (1016 hPa)
ob: HDAM 240800Z 09010KT 9999 FEW023 SCT133 30/23 Q1016
cycle: 8

Station Type Date Time Source
HDAM TAF 2020/02/24 06:48 UTC NOAA

TAF TAF HDAM 240500Z 2406/2506 10010KT 9999 SCT023
BECMG 2415/2418 VRB05KT FEW020 FEW133
BECMG 2500/2506 00000KT SCT020 SCT133

Example: see airport list